sensor_id;sensor_type;location;lat;lon;timestamp;pressure;altitude;pressure_sealevel;temperature;humidity
76594;BME280;65482;50.240;14.302;2024-03-17T00:01:15;100262.66;;;3.28;70.76
76594;BME280;65482;50.240;14.302;2024-03-17T00:04:02;100256.13;;;3.35;70.34
76594;BME280;65482;50.240;14.302;2024-03-17T00:06:28;100252.44;;;3.25;69.99
76594;BME280;65482;50.240;14.302;2024-03-17T00:08:54;100252.81;;;3.18;70.08
76594;BME280;65482;50.240;14.302;2024-03-17T00:11:20;100248.72;;;3.14;70.39
76594;BME280;65482;50.240;14.302;2024-03-17T00:13:46;100249.47;;;3.02;70.49
76594;BME280;65482;50.240;14.302;2024-03-17T00:16:13;100251.91;;;2.91;70.89
76594;BME280;65482;50.240;14.302;2024-03-17T00:18:39;100252.38;;;2.83;71.01
76594;BME280;65482;50.240;14.302;2024-03-17T00:21:05;100252.09;;;2.73;71.70
76594;BME280;65482;50.240;14.302;2024-03-17T00:23:30;100252.44;;;2.67;71.91
76594;BME280;65482;50.240;14.302;2024-03-17T00:25:56;100258.03;;;2.61;72.00
76594;BME280;65482;50.240;14.302;2024-03-17T00:28:21;100257.38;;;2.57;72.36
76594;BME280;65482;50.240;14.302;2024-03-17T00:30:48;100257.44;;;2.56;72.15
76594;BME280;65482;50.240;14.302;2024-03-17T00:33:14;100263.59;;;2.55;72.40
76594;BME280;65482;50.240;14.302;2024-03-17T00:35:39;100257.53;;;2.54;72.44
76594;BME280;65482;50.240;14.302;2024-03-17T00:38:05;100264.59;;;2.52;72.40
76594;BME280;65482;50.240;14.302;2024-03-17T00:40:39;100257.91;;;2.48;72.53
76594;BME280;65482;50.240;14.302;2024-03-17T00:43:10;100265.16;;;2.43;72.37
76594;BME280;65482;50.240;14.302;2024-03-17T00:45:37;100263.56;;;2.41;72.68
76594;BME280;65482;50.240;14.302;2024-03-17T00:48:03;100259.38;;;2.38;72.68
76594;BME280;65482;50.240;14.302;2024-03-17T00:50:28;100262.16;;;2.35;73.06
76594;BME280;65482;50.240;14.302;2024-03-17T00:52:54;100260.69;;;2.31;72.93
76594;BME280;65482;50.240;14.302;2024-03-17T00:55:19;100267.72;;;2.29;72.87
76594;BME280;65482;50.240;14.302;2024-03-17T00:57:45;100263.59;;;2.25;73.27
76594;BME280;65482;50.240;14.302;2024-03-17T01:00:11;100254.22;;;2.22;73.73
76594;BME280;65482;50.240;14.302;2024-03-17T01:02:37;100266.41;;;2.22;73.71
76594;BME280;65482;50.240;14.302;2024-03-17T01:05:03;100273.47;;;2.19;73.76
76594;BME280;65482;50.240;14.302;2024-03-17T01:07:31;100264.72;;;2.21;74.26
76594;BME280;65482;50.240;14.302;2024-03-17T01:09:57;100261.34;;;2.18;74.20
76594;BME280;65482;50.240;14.302;2024-03-17T01:12:23;100258.94;;;2.15;74.42
76594;BME280;65482;50.240;14.302;2024-03-17T01:14:48;100260.72;;;2.15;74.40
76594;BME280;65482;50.240;14.302;2024-03-17T01:17:14;100263.50;;;2.12;74.56
76594;BME280;65482;50.240;14.302;2024-03-17T01:19:39;100253.16;;;2.10;74.15
76594;BME280;65482;50.240;14.302;2024-03-17T01:22:05;100260.22;;;2.08;74.25
76594;BME280;65482;50.240;14.302;2024-03-17T01:24:31;100255.22;;;2.05;73.75
76594;BME280;65482;50.240;14.302;2024-03-17T01:27:00;100254.63;;;2.00;73.79
76594;BME280;65482;50.240;14.302;2024-03-17T01:29:27;100253.03;;;1.97;73.93
76594;BME280;65482;50.240;14.302;2024-03-17T01:31:54;100259.22;;;1.95;73.99
76594;BME280;65482;50.240;14.302;2024-03-17T01:34:21;100258.47;;;1.93;73.83
76594;BME280;65482;50.240;14.302;2024-03-17T01:36:47;100257.72;;;1.91;73.46
76594;BME280;65482;50.240;14.302;2024-03-17T01:39:13;100258.84;;;1.87;73.83
76594;BME280;65482;50.240;14.302;2024-03-17T01:41:39;100259.03;;;1.84;73.92
76594;BME280;65482;50.240;14.302;2024-03-17T01:44:05;100250.47;;;1.82;74.06
76594;BME280;65482;50.240;14.302;2024-03-17T01:46:30;100251.47;;;1.79;74.20
76594;BME280;65482;50.240;14.302;2024-03-17T01:48:56;100247.19;;;1.78;74.15
76594;BME280;65482;50.240;14.302;2024-03-17T01:51:23;100250.69;;;1.77;73.87
76594;BME280;65482;50.240;14.302;2024-03-17T01:53:49;100252.56;;;1.75;73.68
76594;BME280;65482;50.240;14.302;2024-03-17T01:56:16;100252.81;;;1.70;74.00
76594;BME280;65482;50.240;14.302;2024-03-17T01:58:45;100248.78;;;1.65;73.58
76594;BME280;65482;50.240;14.302;2024-03-17T02:01:11;100249.81;;;1.62;73.69
76594;BME280;65482;50.240;14.302;2024-03-17T02:03:41;100247.28;;;1.61;73.86
76594;BME280;65482;50.240;14.302;2024-03-17T02:06:08;100254.41;;;1.57;73.75
76594;BME280;65482;50.240;14.302;2024-03-17T02:08:51;100252.75;;;1.56;74.09
76594;BME280;65482;50.240;14.302;2024-03-17T02:11:25;100252.16;;;1.51;74.17
76594;BME280;65482;50.240;14.302;2024-03-17T02:13:52;100256.44;;;1.52;73.96
76594;BME280;65482;50.240;14.302;2024-03-17T02:16:17;100256.69;;;1.47;73.96
76594;BME280;65482;50.240;14.302;2024-03-17T02:18:44;100253.31;;;1.45;73.78
76594;BME280;65482;50.240;14.302;2024-03-17T02:21:10;100251.94;;;1.39;74.00
76594;BME280;65482;50.240;14.302;2024-03-17T02:23:35;100246.72;;;1.39;73.95
76594;BME280;65482;50.240;14.302;2024-03-17T02:26:01;100254.09;;;1.31;73.87
76594;BME280;65482;50.240;14.302;2024-03-17T02:28:26;100263.72;;;1.29;74.17
76594;BME280;65482;50.240;14.302;2024-03-17T02:30:52;100264.72;;;1.27;73.99
76594;BME280;65482;50.240;14.302;2024-03-17T02:33:18;100258.97;;;1.22;74.32
76594;BME280;65482;50.240;14.302;2024-03-17T02:35:44;100253.91;;;1.18;74.18
76594;BME280;65482;50.240;14.302;2024-03-17T02:38:15;100261.03;;;1.15;73.70
76594;BME280;65482;50.240;14.302;2024-03-17T02:41:01;100259.38;;;1.14;73.94
76594;BME280;65482;50.240;14.302;2024-03-17T02:43:26;100263.81;;;1.12;74.39
76594;BME280;65482;50.240;14.302;2024-03-17T02:45:52;100253.56;;;1.09;73.96
76594;BME280;65482;50.240;14.302;2024-03-17T02:48:17;100265.72;;;1.08;74.39
76594;BME280;65482;50.240;14.302;2024-03-17T02:50:43;100260.59;;;1.07;74.32
76594;BME280;65482;50.240;14.302;2024-03-17T02:53:09;100263.28;;;1.05;74.64
76594;BME280;65482;50.240;14.302;2024-03-17T02:55:35;100267.56;;;1.06;74.86
76594;BME280;65482;50.240;14.302;2024-03-17T02:58:01;100276.44;;;1.02;74.43
76594;BME280;65482;50.240;14.302;2024-03-17T03:00:26;100267.97;;;0.98;74.70
76594;BME280;65482;50.240;14.302;2024-03-17T03:02:52;100263.38;;;1.04;74.41
76594;BME280;65482;50.240;14.302;2024-03-17T03:05:17;100267.63;;;1.05;74.64
76594;BME280;65482;50.240;14.302;2024-03-17T03:07:43;100257.31;;;1.03;74.62
76594;BME280;65482;50.240;14.302;2024-03-17T03:10:08;100260.09;;;1.00;74.13
76594;BME280;65482;50.240;14.302;2024-03-17T03:12:34;100262.78;;;0.98;74.13
76594;BME280;65482;50.240;14.302;2024-03-17T03:15:00;100261.94;;;0.98;74.28
76594;BME280;65482;50.240;14.302;2024-03-17T03:17:25;100256.00;;;0.96;74.28
76594;BME280;65482;50.240;14.302;2024-03-17T03:19:51;100258.72;;;0.93;74.34
76594;BME280;65482;50.240;14.302;2024-03-17T03:22:16;100263.94;;;0.93;74.77
76594;BME280;65482;50.240;14.302;2024-03-17T03:24:42;100261.41;;;0.91;74.98
76594;BME280;65482;50.240;14.302;2024-03-17T03:27:08;100253.72;;;0.90;74.64
76594;BME280;65482;50.240;14.302;2024-03-17T03:29:34;100270.38;;;0.86;74.42
76594;BME280;65482;50.240;14.302;2024-03-17T03:31:59;100257.78;;;0.78;74.77
76594;BME280;65482;50.240;14.302;2024-03-17T03:34:25;100258.88;;;0.74;74.99
76594;BME280;65482;50.240;14.302;2024-03-17T03:36:51;100254.75;;;0.70;74.64
76594;BME280;65482;50.240;14.302;2024-03-17T03:39:17;100251.28;;;0.69;74.61
76594;BME280;65482;50.240;14.302;2024-03-17T03:41:44;100250.47;;;0.69;74.41
76594;BME280;65482;50.240;14.302;2024-03-17T03:44:10;100248.34;;;0.59;74.68
76594;BME280;65482;50.240;14.302;2024-03-17T03:46:36;100252.00;;;0.55;75.09
76594;BME280;65482;50.240;14.302;2024-03-17T03:49:01;100251.25;;;0.53;75.34
76594;BME280;65482;50.240;14.302;2024-03-17T03:51:28;100251.41;;;0.50;75.76
76594;BME280;65482;50.240;14.302;2024-03-17T03:53:53;100253.25;;;0.48;75.89
76594;BME280;65482;50.240;14.302;2024-03-17T03:56:19;100260.19;;;0.48;75.87
76594;BME280;65482;50.240;14.302;2024-03-17T03:58:46;100255.00;;;0.48;75.92
76594;BME280;65482;50.240;14.302;2024-03-17T04:01:12;100249.13;;;0.44;76.22
76594;BME280;65482;50.240;14.302;2024-03-17T04:03:37;100249.97;;;0.45;75.92
76594;BME280;65482;50.240;14.302;2024-03-17T04:08:31;100248.53;;;0.39;75.83
76594;BME280;65482;50.240;14.302;2024-03-17T04:10:57;100248.69;;;0.36;75.67
76594;BME280;65482;50.240;14.302;2024-03-17T04:13:23;100248.06;;;0.31;75.49
76594;BME280;65482;50.240;14.302;2024-03-17T04:15:49;100244.72;;;0.29;75.79
76594;BME280;65482;50.240;14.302;2024-03-17T04:18:15;100247.38;;;0.27;76.05
76594;BME280;65482;50.240;14.302;2024-03-17T04:20:43;100247.44;;;0.26;75.99
76594;BME280;65482;50.240;14.302;2024-03-17T04:23:08;100255.34;;;0.24;76.05
76594;BME280;65482;50.240;14.302;2024-03-17T04:25:34;100258.81;;;0.23;75.85
76594;BME280;65482;50.240;14.302;2024-03-17T04:28:00;100257.16;;;0.22;76.31
76594;BME280;65482;50.240;14.302;2024-03-17T04:30:26;100254.56;;;0.22;76.36
76594;BME280;65482;50.240;14.302;2024-03-17T04:32:52;100257.22;;;0.21;76.29
76594;BME280;65482;50.240;14.302;2024-03-17T04:35:18;100262.50;;;0.19;75.95
76594;BME280;65482;50.240;14.302;2024-03-17T04:37:43;100263.44;;;0.18;76.11
76594;BME280;65482;50.240;14.302;2024-03-17T04:40:10;100260.91;;;0.16;75.86
76594;BME280;65482;50.240;14.302;2024-03-17T04:42:36;100271.34;;;0.15;76.41
76594;BME280;65482;50.240;14.302;2024-03-17T04:45:05;100266.97;;;0.15;76.13
76594;BME280;65482;50.240;14.302;2024-03-17T04:47:30;100268.69;;;0.16;76.19
76594;BME280;65482;50.240;14.302;2024-03-17T04:49:56;100266.16;;;0.15;76.01
76594;BME280;65482;50.240;14.302;2024-03-17T04:52:22;100261.03;;;0.13;76.24
76594;BME280;65482;50.240;14.302;2024-03-17T04:54:48;100260.97;;;0.15;76.21
76594;BME280;65482;50.240;14.302;2024-03-17T04:57:14;100267.75;;;0.17;76.37
76594;BME280;65482;50.240;14.302;2024-03-17T04:59:39;100264.25;;;0.18;76.21
76594;BME280;65482;50.240;14.302;2024-03-17T05:02:08;100275.47;;;0.19;76.35
76594;BME280;65482;50.240;14.302;2024-03-17T05:04:34;100266.00;;;0.18;76.50
76594;BME280;65482;50.240;14.302;2024-03-17T05:06:59;100269.44;;;0.18;76.45
76594;BME280;65482;50.240;14.302;2024-03-17T05:09:25;100265.09;;;0.19;76.36
76594;BME280;65482;50.240;14.302;2024-03-17T05:11:51;100275.41;;;0.21;76.44
76594;BME280;65482;50.240;14.302;2024-03-17T05:14:20;100269.22;;;0.23;76.40
76594;BME280;65482;50.240;14.302;2024-03-17T05:16:48;100277.81;;;0.24;76.17
76594;BME280;65482;50.240;14.302;2024-03-17T05:19:14;100277.81;;;0.24;75.98
76594;BME280;65482;50.240;14.302;2024-03-17T05:21:40;100279.53;;;0.25;76.14
76594;BME280;65482;50.240;14.302;2024-03-17T05:24:06;100288.06;;;0.27;76.08
76594;BME280;65482;50.240;14.302;2024-03-17T05:26:32;100293.09;;;0.30;75.45
76594;BME280;65482;50.240;14.302;2024-03-17T05:28:58;100286.75;;;0.35;75.72
76594;BME280;65482;50.240;14.302;2024-03-17T05:31:23;100289.22;;;0.38;75.74
76594;BME280;65482;50.240;14.302;2024-03-17T05:33:49;100288.06;;;0.44;75.57
76594;BME280;65482;50.240;14.302;2024-03-17T05:36:15;100306.84;;;0.49;75.45
76594;BME280;65482;50.240;14.302;2024-03-17T05:38:41;100301.25;;;0.57;75.62
76594;BME280;65482;50.240;14.302;2024-03-17T05:41:08;100311.25;;;0.65;75.17
76594;BME280;65482;50.240;14.302;2024-03-17T05:43:35;100306.59;;;0.71;75.40
76594;BME280;65482;50.240;14.302;2024-03-17T05:46:06;100312.22;;;0.79;74.65
76594;BME280;65482;50.240;14.302;2024-03-17T05:48:36;100318.78;;;0.87;74.27
76594;BME280;65482;50.240;14.302;2024-03-17T05:51:06;100313.97;;;0.96;74.37
76594;BME280;65482;50.240;14.302;2024-03-17T05:53:33;100316.94;;;1.06;74.20
76594;BME280;65482;50.240;14.302;2024-03-17T05:56:00;100321.78;;;1.93;72.93
76594;BME280;65482;50.240;14.302;2024-03-17T05:58:26;100321.09;;;3.67;69.01
76594;BME280;65482;50.240;14.302;2024-03-17T06:00:51;100323.13;;;5.22;62.89
76594;BME280;65482;50.240;14.302;2024-03-17T06:03:17;100325.72;;;6.68;57.49
76594;BME280;65482;50.240;14.302;2024-03-17T06:05:43;100321.38;;;8.02;53.70
76594;BME280;65482;50.240;14.302;2024-03-17T06:08:13;100330.25;;;9.18;49.73
76594;BME280;65482;50.240;14.302;2024-03-17T06:10:44;100327.56;;;9.39;47.79
76594;BME280;65482;50.240;14.302;2024-03-17T06:13:10;100327.09;;;8.40;50.22
76594;BME280;65482;50.240;14.302;2024-03-17T06:15:40;100331.28;;;8.10;51.17
76594;BME280;65482;50.240;14.302;2024-03-17T06:18:07;100331.69;;;9.01;49.55
76594;BME280;65482;50.240;14.302;2024-03-17T06:20:40;100330.06;;;9.90;47.22
76594;BME280;65482;50.240;14.302;2024-03-17T06:23:08;100328.88;;;10.72;45.50
76594;BME280;65482;50.240;14.302;2024-03-17T06:25:39;100332.78;;;10.39;45.66
76594;BME280;65482;50.240;14.302;2024-03-17T06:28:05;100335.09;;;10.13;45.86
76594;BME280;65482;50.240;14.302;2024-03-17T06:30:31;100334.09;;;9.94;46.22
76594;BME280;65482;50.240;14.302;2024-03-17T06:32:58;100337.06;;;10.30;46.06
76594;BME280;65482;50.240;14.302;2024-03-17T06:35:27;100333.84;;;10.07;46.84
76594;BME280;65482;50.240;14.302;2024-03-17T06:37:59;100335.50;;;10.18;46.63
76594;BME280;65482;50.240;14.302;2024-03-17T06:40:26;100331.63;;;10.03;47.37
76594;BME280;65482;50.240;14.302;2024-03-17T06:42:52;100340.34;;;10.91;46.30
76594;BME280;65482;50.240;14.302;2024-03-17T06:45:19;100343.34;;;12.44;43.15
76594;BME280;65482;50.240;14.302;2024-03-17T06:47:46;100337.88;;;13.16;41.38
76594;BME280;65482;50.240;14.302;2024-03-17T06:50:12;100338.22;;;13.98;39.65
76594;BME280;65482;50.240;14.302;2024-03-17T06:52:38;100353.44;;;14.63;38.53
76594;BME280;65482;50.240;14.302;2024-03-17T06:55:04;100341.34;;;16.12;35.94
76594;BME280;65482;50.240;14.302;2024-03-17T06:57:34;100349.00;;;17.44;33.55
76594;BME280;65482;50.240;14.302;2024-03-17T07:00:00;100352.34;;;17.97;32.54
76594;BME280;65482;50.240;14.302;2024-03-17T07:02:26;100359.00;;;18.44;31.44
76594;BME280;65482;50.240;14.302;2024-03-17T07:04:51;100366.78;;;19.17;30.58
76594;BME280;65482;50.240;14.302;2024-03-17T07:07:17;100368.06;;;19.56;29.93
76594;BME280;65482;50.240;14.302;2024-03-17T07:09:43;100361.72;;;20.25;29.71
76594;BME280;65482;50.240;14.302;2024-03-17T07:12:10;100370.03;;;20.91;28.69
76594;BME280;65482;50.240;14.302;2024-03-17T07:14:36;100369.63;;;20.94;28.24
76594;BME280;65482;50.240;14.302;2024-03-17T07:17:03;100372.31;;;20.94;28.77
76594;BME280;65482;50.240;14.302;2024-03-17T07:19:30;100371.09;;;20.70;28.60
76594;BME280;65482;50.240;14.302;2024-03-17T07:21:57;100375.56;;;20.42;29.44
76594;BME280;65482;50.240;14.302;2024-03-17T07:24:23;100379.38;;;20.06;29.33
76594;BME280;65482;50.240;14.302;2024-03-17T07:26:49;100365.72;;;20.70;28.48
76594;BME280;65482;50.240;14.302;2024-03-17T07:29:15;100380.19;;;21.74;27.23
76594;BME280;65482;50.240;14.302;2024-03-17T07:31:41;100383.34;;;22.48;25.66
76594;BME280;65482;50.240;14.302;2024-03-17T07:34:07;100375.72;;;22.95;25.17
76594;BME280;65482;50.240;14.302;2024-03-17T07:36:32;100376.09;;;23.60;24.45
76594;BME280;65482;50.240;14.302;2024-03-17T07:38:58;100384.72;;;23.88;24.18
76594;BME280;65482;50.240;14.302;2024-03-17T07:41:24;100381.13;;;23.94;24.02
76594;BME280;65482;50.240;14.302;2024-03-17T07:43:50;100376.78;;;23.56;24.48
76594;BME280;65482;50.240;14.302;2024-03-17T07:46:16;100381.84;;;23.27;24.72
76594;BME280;65482;50.240;14.302;2024-03-17T07:48:43;100377.28;;;22.27;25.91
76594;BME280;65482;50.240;14.302;2024-03-17T07:51:14;100367.75;;;21.21;26.82
76594;BME280;65482;50.240;14.302;2024-03-17T07:53:44;100373.69;;;20.43;27.48
76594;BME280;65482;50.240;14.302;2024-03-17T07:56:26;100375.75;;;20.27;28.68
76594;BME280;65482;50.240;14.302;2024-03-17T07:58:51;100371.25;;;20.41;27.80
76594;BME280;65482;50.240;14.302;2024-03-17T08:01:22;100372.09;;;20.89;27.81
76594;BME280;65482;50.240;14.302;2024-03-17T08:03:48;100373.97;;;20.68;27.50
76594;BME280;65482;50.240;14.302;2024-03-17T08:06:22;100374.13;;;20.40;28.25
76594;BME280;65482;50.240;14.302;2024-03-17T08:08:47;100373.66;;;20.16;27.53
76594;BME280;65482;50.240;14.302;2024-03-17T08:11:14;100370.38;;;19.66;28.86
76594;BME280;65482;50.240;14.302;2024-03-17T08:13:39;100366.50;;;19.05;30.02
76594;BME280;65482;50.240;14.302;2024-03-17T08:16:07;100371.50;;;18.65;29.46
76594;BME280;65482;50.240;14.302;2024-03-17T08:18:33;100369.59;;;17.95;30.77
76594;BME280;65482;50.240;14.302;2024-03-17T08:21:02;100363.53;;;17.71;32.05
76594;BME280;65482;50.240;14.302;2024-03-17T08:23:32;100351.53;;;17.97;31.41
76594;BME280;65482;50.240;14.302;2024-03-17T08:26:01;100349.06;;;17.95;30.98
76594;BME280;65482;50.240;14.302;2024-03-17T08:28:28;100360.31;;;17.91;31.92
76594;BME280;65482;50.240;14.302;2024-03-17T08:30:55;100359.44;;;18.26;30.92
76594;BME280;65482;50.240;14.302;2024-03-17T08:33:22;100355.75;;;18.27;31.03
76594;BME280;65482;50.240;14.302;2024-03-17T08:35:55;100356.25;;;17.95;31.10
76594;BME280;65482;50.240;14.302;2024-03-17T08:38:22;100356.81;;;18.12;30.97
76594;BME280;65482;50.240;14.302;2024-03-17T08:40:52;100355.66;;;17.99;30.81
76594;BME280;65482;50.240;14.302;2024-03-17T08:43:18;100356.09;;;17.52;31.82
76594;BME280;65482;50.240;14.302;2024-03-17T08:45:57;100352.22;;;17.09;32.72
76594;BME280;65482;50.240;14.302;2024-03-17T08:48:26;100351.88;;;17.27;31.82
76594;BME280;65482;50.240;14.302;2024-03-17T08:50:53;100348.81;;;17.45;31.84
76594;BME280;65482;50.240;14.302;2024-03-17T08:53:23;100363.97;;;17.60;32.57
76594;BME280;65482;50.240;14.302;2024-03-17T08:58:56;100350.81;;;16.84;32.82
76594;BME280;65482;50.240;14.302;2024-03-17T09:01:30;100339.03;;;16.09;34.53
76594;BME280;65482;50.240;14.302;2024-03-17T09:04:03;100336.84;;;15.42;35.20
76594;BME280;65482;50.240;14.302;2024-03-17T09:06:35;100338.09;;;15.62;35.90
76594;BME280;65482;50.240;14.302;2024-03-17T09:09:10;100332.09;;;15.68;35.14
76594;BME280;65482;50.240;14.302;2024-03-17T09:11:55;100330.50;;;15.51;35.72
76594;BME280;65482;50.240;14.302;2024-03-17T09:14:40;100336.28;;;15.07;36.06
76594;BME280;65482;50.240;14.302;2024-03-17T09:17:16;100323.69;;;14.51;36.47
76594;BME280;65482;50.240;14.302;2024-03-17T09:19:51;100327.81;;;14.13;37.68
76594;BME280;65482;50.240;14.302;2024-03-17T09:22:49;100327.97;;;13.95;38.09
76594;BME280;65482;50.240;14.302;2024-03-17T09:25:19;100314.31;;;13.73;38.66
76594;BME280;65482;50.240;14.302;2024-03-17T09:27:52;100317.00;;;13.90;38.23
76594;BME280;65482;50.240;14.302;2024-03-17T09:30:22;100317.19;;;13.97;37.48
76594;BME280;65482;50.240;14.302;2024-03-17T09:32:59;100314.88;;;14.02;38.58
76594;BME280;65482;50.240;14.302;2024-03-17T09:35:47;100314.03;;;13.93;38.65
76594;BME280;65482;50.240;14.302;2024-03-17T09:38:26;100313.16;;;13.76;38.08
76594;BME280;65482;50.240;14.302;2024-03-17T09:40:55;100307.19;;;13.82;38.35
76594;BME280;65482;50.240;14.302;2024-03-17T09:43:44;100314.03;;;13.93;37.40
76594;BME280;65482;50.240;14.302;2024-03-17T09:46:18;100306.41;;;13.98;36.73
76594;BME280;65482;50.240;14.302;2024-03-17T09:48:46;100311.66;;;13.73;36.78
76594;BME280;65482;50.240;14.302;2024-03-17T09:51:42;100301.72;;;13.76;38.03
76594;BME280;65482;50.240;14.302;2024-03-17T09:54:26;100300.41;;;13.80;37.88
76594;BME280;65482;50.240;14.302;2024-03-17T09:57:14;100302.88;;;13.65;37.76
76594;BME280;65482;50.240;14.302;2024-03-17T09:59:52;100300.13;;;13.48;38.05
76594;BME280;65482;50.240;14.302;2024-03-17T10:02:35;100301.78;;;13.41;38.10
76594;BME280;65482;50.240;14.302;2024-03-17T10:05:27;100295.47;;;13.42;37.34
76594;BME280;65482;50.240;14.302;2024-03-17T10:08:03;100293.88;;;13.58;37.41
76594;BME280;65482;50.240;14.302;2024-03-17T10:10:35;100296.66;;;13.48;37.92
76594;BME280;65482;50.240;14.302;2024-03-17T10:13:12;100285.16;;;13.73;37.62
76594;BME280;65482;50.240;14.302;2024-03-17T10:15:56;100289.50;;;13.91;36.21
76594;BME280;65482;50.240;14.302;2024-03-17T10:18:30;100289.97;;;13.95;35.83
76594;BME280;65482;50.240;14.302;2024-03-17T10:20:58;100293.38;;;13.62;36.85
76594;BME280;65482;50.240;14.302;2024-03-17T10:23:25;100285.00;;;13.75;35.11
76594;BME280;65482;50.240;14.302;2024-03-17T10:25:53;100288.19;;;13.95;34.26
76594;BME280;65482;50.240;14.302;2024-03-17T10:28:19;100281.88;;;14.04;34.75
76594;BME280;65482;50.240;14.302;2024-03-17T10:31:00;100284.88;;;14.01;34.83
76594;BME280;65482;50.240;14.302;2024-03-17T10:33:26;100283.03;;;13.85;35.00
76594;BME280;65482;50.240;14.302;2024-03-17T10:36:00;100280.50;;;13.76;34.59
76594;BME280;65482;50.240;14.302;2024-03-17T10:38:26;100286.34;;;13.87;35.28
76594;BME280;65482;50.240;14.302;2024-03-17T10:40:53;100284.66;;;13.78;34.17
76594;BME280;65482;50.240;14.302;2024-03-17T10:43:19;100283.81;;;13.69;34.64
76594;BME280;65482;50.240;14.302;2024-03-17T10:45:54;100278.66;;;13.60;35.06
76594;BME280;65482;50.240;14.302;2024-03-17T10:48:20;100277.19;;;13.73;34.90
76594;BME280;65482;50.240;14.302;2024-03-17T10:50:48;100280.38;;;13.85;34.26
76594;BME280;65482;50.240;14.302;2024-03-17T10:53:18;100277.59;;;14.20;34.88
76594;BME280;65482;50.240;14.302;2024-03-17T10:56:02;100270.97;;;14.48;33.65
76594;BME280;65482;50.240;14.302;2024-03-17T10:58:38;100280.72;;;14.48;32.96
76594;BME280;65482;50.240;14.302;2024-03-17T11:01:11;100277.91;;;14.49;33.12
76594;BME280;65482;50.240;14.302;2024-03-17T11:03:37;100275.94;;;14.35;33.87
76594;BME280;65482;50.240;14.302;2024-03-17T11:06:04;100267.78;;;14.20;32.69
76594;BME280;65482;50.240;14.302;2024-03-17T11:08:32;100276.75;;;14.03;33.48
76594;BME280;65482;50.240;14.302;2024-03-17T11:10:59;100275.38;;;13.90;32.78
76594;BME280;65482;50.240;14.302;2024-03-17T11:13:27;100275.25;;;14.08;32.93
76594;BME280;65482;50.240;14.302;2024-03-17T11:15:55;100264.97;;;14.13;33.59
76594;BME280;65482;50.240;14.302;2024-03-17T11:20:59;100273.25;;;13.94;34.24
76594;BME280;65482;50.240;14.302;2024-03-17T11:23:33;100268.75;;;13.78;34.86
76594;BME280;65482;50.240;14.302;2024-03-17T11:26:27;100270.13;;;13.40;35.63
76594;BME280;65482;50.240;14.302;2024-03-17T11:31:52;100257.00;;;13.30;34.55
76594;BME280;65482;50.240;14.302;2024-03-17T11:34:33;100246.47;;;13.55;33.34
76594;BME280;65482;50.240;14.302;2024-03-17T11:37:07;100250.16;;;13.62;33.70
76594;BME280;65482;50.240;14.302;2024-03-17T11:39:56;100255.69;;;13.85;32.87
76594;BME280;65482;50.240;14.302;2024-03-17T11:42:30;100243.56;;;13.90;33.34
76594;BME280;65482;50.240;14.302;2024-03-17T11:45:12;100246.72;;;13.78;33.64
76594;BME280;65482;50.240;14.302;2024-03-17T11:47:44;100239.19;;;13.57;33.49
76594;BME280;65482;50.240;14.302;2024-03-17T11:50:12;100231.63;;;13.19;34.60
76594;BME280;65482;50.240;14.302;2024-03-17T11:52:39;100225.59;;;13.09;34.13
76594;BME280;65482;50.240;14.302;2024-03-17T11:55:15;100222.47;;;13.05;35.27
76594;BME280;65482;50.240;14.302;2024-03-17T11:57:41;100222.09;;;13.00;34.89
76594;BME280;65482;50.240;14.302;2024-03-17T12:00:21;100217.19;;;13.13;34.62
76594;BME280;65482;50.240;14.302;2024-03-17T12:02:49;100224.94;;;13.07;35.10
76594;BME280;65482;50.240;14.302;2024-03-17T12:05:16;100228.06;;;13.02;35.94
76594;BME280;65482;50.240;14.302;2024-03-17T12:07:43;100225.91;;;12.98;36.05
76594;BME280;65482;50.240;14.302;2024-03-17T12:10:11;100219.81;;;12.79;36.28
76594;BME280;65482;50.240;14.302;2024-03-17T12:12:39;100218.78;;;12.64;35.66
76594;BME280;65482;50.240;14.302;2024-03-17T12:15:17;100214.16;;;12.66;36.30
76594;BME280;65482;50.240;14.302;2024-03-17T12:17:46;100208.97;;;12.56;35.21
76594;BME280;65482;50.240;14.302;2024-03-17T12:20:19;100212.47;;;12.65;35.54
76594;BME280;65482;50.240;14.302;2024-03-17T12:22:47;100210.34;;;12.68;35.07
76594;BME280;65482;50.240;14.302;2024-03-17T12:25:17;100210.88;;;12.72;34.77
76594;BME280;65482;50.240;14.302;2024-03-17T12:27:45;100202.03;;;12.63;33.91
76594;BME280;65482;50.240;14.302;2024-03-17T12:30:15;100199.72;;;12.60;35.08
76594;BME280;65482;50.240;14.302;2024-03-17T12:32:41;100200.44;;;12.70;35.06
76594;BME280;65482;50.240;14.302;2024-03-17T12:35:16;100196.75;;;12.89;34.96
76594;BME280;65482;50.240;14.302;2024-03-17T12:37:44;100180.88;;;12.98;34.97
76594;BME280;65482;50.240;14.302;2024-03-17T12:40:21;100169.50;;;13.05;35.15
76594;BME280;65482;50.240;14.302;2024-03-17T12:42:49;100187.38;;;13.03;35.25
76594;BME280;65482;50.240;14.302;2024-03-17T12:45:19;100172.06;;;12.89;34.81
76594;BME280;65482;50.240;14.302;2024-03-17T12:47:47;100168.16;;;12.67;35.37
76594;BME280;65482;50.240;14.302;2024-03-17T12:50:13;100175.56;;;12.63;35.85
76594;BME280;65482;50.240;14.302;2024-03-17T12:52:40;100166.25;;;12.51;35.67
76594;BME280;65482;50.240;14.302;2024-03-17T12:55:09;100169.91;;;12.50;35.46
76594;BME280;65482;50.240;14.302;2024-03-17T13:00:45;100172.44;;;12.60;35.32
76594;BME280;65482;50.240;14.302;2024-03-17T13:03:23;100167.38;;;12.74;34.92
76594;BME280;65482;50.240;14.302;2024-03-17T13:05:49;100168.19;;;12.75;35.27
76594;BME280;65482;50.240;14.302;2024-03-17T13:08:15;100160.25;;;12.75;34.77